createdAt,value
2023-03-26T00:00:11.210Z,99300.62
2023-03-26T00:02:45.384Z,99297.92
2023-03-26T00:04:38.482Z,99299.02
2023-03-26T00:06:36.854Z,99298.76
2023-03-26T00:08:29.869Z,99298.95
2023-03-26T00:10:22.696Z,99294.84
2023-03-26T00:12:15.542Z,99295.91
2023-03-26T00:14:13.841Z,99293.19
2023-03-26T00:16:07.263Z,99291.64
2023-03-26T00:18:00.816Z,99291.29
2023-03-26T00:19:53.732Z,99291.28
2023-03-26T00:21:48.433Z,99288.38
2023-03-26T00:23:42.317Z,99289.46
2023-03-26T00:25:41.426Z,99289.77
2023-03-26T00:27:34.214Z,99285.84
2023-03-26T00:29:27.997Z,99289.30
2023-03-26T00:31:21.267Z,99285.96
2023-03-26T00:33:17.409Z,99286.40
2023-03-26T00:35:11.167Z,99292.14
2023-03-26T00:37:04.427Z,99290.45
2023-03-26T00:38:57.268Z,99279.73
2023-03-26T00:40:51.662Z,99278.92
2023-03-26T00:42:44.616Z,99276.82
2023-03-26T00:44:37.446Z,99272.96
2023-03-26T00:46:32.041Z,99269.06
2023-03-26T00:48:42.220Z,99267.17
2023-03-26T00:50:38.133Z,99268.58
2023-03-26T00:52:31.869Z,99263.70
2023-03-26T00:54:25.021Z,99261.43
2023-03-26T00:56:19.034Z,99261.64
2023-03-26T00:58:13.464Z,99259.56
2023-03-26T01:00:15.423Z,99254.39
2023-03-26T01:02:12.720Z,99256.81
2023-03-26T01:04:24.290Z,99251.73
2023-03-26T01:06:27.826Z,99246.93
2023-03-26T01:08:26.862Z,99247.52
2023-03-26T01:10:22.879Z,99240.40
2023-03-26T01:12:20.847Z,99243.95
2023-03-26T01:14:23.876Z,99239.73
2023-03-26T01:16:24.944Z,99239.95
2023-03-26T01:18:22.242Z,99238.65
2023-03-26T01:20:30.628Z,99236.76
2023-03-26T01:22:26.605Z,99243.10
2023-03-26T01:24:19.458Z,99237.56
2023-03-26T01:26:32.391Z,99235.65
2023-03-26T01:28:30.991Z,99239.55
2023-03-26T01:30:35.012Z,99236.30
2023-03-26T01:32:38.116Z,99240.34
2023-03-26T01:34:49.983Z,99242.38
2023-03-26T01:36:56.645Z,99244.92
2023-03-26T01:39:09.702Z,99248.09
2023-03-26T01:41:14.796Z,99242.50
2023-03-26T01:43:32.014Z,99238.96
2023-03-26T01:45:30.874Z,99243.86
2023-03-26T01:47:24.381Z,99239.53
2023-03-26T01:49:18.776Z,99243.96
2023-03-26T01:51:13.493Z,99235.98
2023-03-26T01:53:09.326Z,99238.92
2023-03-26T01:55:03.116Z,99242.84
2023-03-26T01:57:38.051Z,99244.46
2023-03-26T01:59:52.400Z,99240.63
2023-03-26T02:02:05.019Z,99237.83
2023-03-26T02:04:16.903Z,99235.36
2023-03-26T02:06:18.300Z,99236.63
2023-03-26T02:08:22.843Z,99239.98
2023-03-26T02:10:23.803Z,99237.47
2023-03-26T02:12:17.875Z,99235.48
2023-03-26T02:14:11.208Z,99238.61
2023-03-26T02:16:07.619Z,99234.73
2023-03-26T02:18:02.220Z,99231.95
2023-03-26T02:19:55.213Z,99228.56
2023-03-26T02:21:51.530Z,99233.09
2023-03-26T02:23:47.649Z,99231.55
2023-03-26T02:25:42.129Z,99228.83
2023-03-26T02:27:36.824Z,99228.27
2023-03-26T02:29:29.975Z,99229.27
2023-03-26T02:31:26.653Z,99227.52
2023-03-26T02:33:21.714Z,99227.51
2023-03-26T02:35:14.593Z,99220.00
2023-03-26T02:37:08.627Z,99220.34
2023-03-26T02:39:01.677Z,99218.86
2023-03-26T02:40:56.572Z,99218.31
2023-03-26T02:42:51.970Z,99217.63
2023-03-26T02:44:44.926Z,99215.40
2023-03-26T02:46:46.681Z,99218.48
2023-03-26T02:48:59.595Z,99217.94
2023-03-26T02:50:54.772Z,99216.94
2023-03-26T02:52:59.928Z,99219.16
2023-03-26T02:54:53.655Z,99220.33
2023-03-26T02:56:48.516Z,99220.08
2023-03-26T02:58:50.651Z,99213.13
2023-03-26T03:00:44.998Z,99219.44
2023-03-26T03:03:14.324Z,99217.62
2023-03-26T03:05:12.914Z,99219.69
2023-03-26T03:07:06.071Z,99218.36
2023-03-26T03:08:59.335Z,99218.90
2023-03-26T03:11:10.414Z,99218.86
2023-03-26T03:13:08.782Z,99220.33
2023-03-26T03:15:01.622Z,99216.98
2023-03-26T03:16:54.579Z,99217.36
2023-03-26T03:18:54.648Z,99217.50
2023-03-26T03:20:48.245Z,99219.05
2023-03-26T03:22:41.508Z,99214.06
2023-03-26T03:24:38.853Z,99215.95
2023-03-26T03:26:32.120Z,99216.27
2023-03-26T03:28:30.797Z,99220.23
2023-03-26T03:30:23.739Z,99221.48
2023-03-26T03:32:20.170Z,99217.05
2023-03-26T03:34:13.842Z,99222.28
2023-03-26T03:36:20.762Z,99221.81
2023-03-26T03:38:21.136Z,99220.27
2023-03-26T03:40:15.721Z,99220.17
2023-03-26T03:42:09.034Z,99220.34
2023-03-26T03:44:02.231Z,99222.41
2023-03-26T03:45:57.140Z,99218.37
2023-03-26T03:48:01.500Z,99219.52
2023-03-26T03:50:01.472Z,99219.45
2023-03-26T03:51:55.785Z,99220.70
2023-03-26T03:53:57.610Z,99219.68
2023-03-26T03:56:24.328Z,99221.30
2023-03-26T03:58:37.282Z,99221.28
2023-03-26T04:00:38.382Z,99221.19
2023-03-26T04:02:54.455Z,99222.96
2023-03-26T04:04:50.432Z,99226.11
2023-03-26T04:06:46.313Z,99223.36
2023-03-26T04:08:39.975Z,99221.48
2023-03-26T04:10:33.334Z,99219.77
2023-03-26T04:12:38.265Z,99226.35
2023-03-26T04:14:31.626Z,99218.00
2023-03-26T04:16:27.160Z,99215.50
2023-03-26T04:18:20.490Z,99217.53
2023-03-26T04:20:16.259Z,99215.71
2023-03-26T04:22:12.178Z,99214.09
2023-03-26T04:24:14.282Z,99213.59
2023-03-26T04:26:41.839Z,99212.72
2023-03-26T04:28:49.148Z,99211.92
2023-03-26T04:30:54.655Z,99210.41
2023-03-26T04:32:58.773Z,99215.59
2023-03-26T04:34:53.468Z,99213.88
2023-03-26T04:36:51.607Z,99213.06
2023-03-26T04:38:49.432Z,99211.72
2023-03-26T04:40:47.602Z,99213.52
2023-03-26T04:43:00.085Z,99215.30
2023-03-26T04:45:18.651Z,99214.25
2023-03-26T04:47:12.288Z,99213.34
2023-03-26T04:49:10.573Z,99214.34
2023-03-26T04:51:03.565Z,99213.02
2023-03-26T04:52:57.572Z,99214.58
2023-03-26T04:55:33.649Z,99215.81
2023-03-26T04:57:38.782Z,99214.30
2023-03-26T04:59:35.725Z,99212.48
2023-03-26T05:01:31.103Z,99218.13
2023-03-26T05:03:24.175Z,99216.20
2023-03-26T05:05:17.942Z,99215.82
2023-03-26T05:07:16.626Z,99220.39
2023-03-26T05:09:14.514Z,99218.34
2023-03-26T05:11:25.975Z,99217.02
2023-03-26T05:13:19.077Z,99215.48
2023-03-26T05:15:15.554Z,99218.58
2023-03-26T05:17:21.474Z,99221.55
2023-03-26T05:19:15.171Z,99219.98
2023-03-26T05:21:08.332Z,99224.48
2023-03-26T05:23:02.196Z,99218.15
2023-03-26T05:24:57.187Z,99220.02
2023-03-26T05:26:52.185Z,99215.77
2023-03-26T05:28:48.411Z,99216.90
2023-03-26T05:30:47.090Z,99216.07
2023-03-26T05:32:40.501Z,99220.08
2023-03-26T05:34:33.498Z,99223.77
2023-03-26T05:36:28.591Z,99218.46
2023-03-26T05:38:59.949Z,99221.13
2023-03-26T05:41:26.802Z,99221.54
2023-03-26T05:43:19.842Z,99221.24
2023-03-26T05:45:28.049Z,99221.36
2023-03-26T05:47:21.202Z,99220.23
2023-03-26T05:49:14.150Z,99220.12
2023-03-26T05:51:08.126Z,99222.70
2023-03-26T05:53:01.589Z,99223.16
2023-03-26T05:55:13.685Z,99223.32
2023-03-26T05:57:42.770Z,99229.95
2023-03-26T06:00:09.005Z,99233.71
2023-03-26T06:02:11.631Z,99233.62
2023-03-26T06:04:13.855Z,99237.03
2023-03-26T06:06:18.700Z,99244.55
2023-03-26T06:08:19.743Z,99245.25
2023-03-26T06:10:18.181Z,99245.52
2023-03-26T06:12:13.495Z,99249.25
2023-03-26T06:14:07.254Z,99244.94
2023-03-26T06:16:01.355Z,99255.21
2023-03-26T06:17:59.983Z,99248.15
2023-03-26T06:20:22.143Z,99253.75
2023-03-26T06:22:17.346Z,99257.04
2023-03-26T06:24:37.342Z,99255.89
2023-03-26T06:26:50.053Z,99257.34
2023-03-26T06:28:56.607Z,99259.38
2023-03-26T06:31:25.143Z,99261.96
2023-03-26T06:33:37.607Z,99264.27
2023-03-26T06:35:31.870Z,99259.88
2023-03-26T06:37:24.834Z,99262.27
2023-03-26T06:39:23.198Z,99259.64
2023-03-26T06:41:25.365Z,99267.33
2023-03-26T06:43:39.203Z,99267.98
2023-03-26T06:45:52.938Z,99268.15
2023-03-26T06:48:05.122Z,99268.75
2023-03-26T06:50:21.337Z,99271.07
2023-03-26T06:52:32.819Z,99276.88
2023-03-26T06:54:44.091Z,99274.05
2023-03-26T06:57:00.151Z,99280.38
2023-03-26T06:59:26.513Z,99280.40
2023-03-26T07:01:38.282Z,99280.60
2023-03-26T07:03:57.351Z,99281.45
2023-03-26T07:06:13.663Z,99288.35
2023-03-26T07:08:21.470Z,99285.90
2023-03-26T07:10:33.489Z,99288.39
2023-03-26T07:12:35.412Z,99287.60
2023-03-26T07:14:48.742Z,99292.01
2023-03-26T07:17:08.329Z,99293.03
2023-03-26T07:19:39.878Z,99291.92
2023-03-26T07:21:33.333Z,99289.30
2023-03-26T07:23:27.295Z,99292.60
2023-03-26T07:25:33.043Z,99291.44
2023-03-26T07:28:24.448Z,99294.33
2023-03-26T07:31:07.597Z,99295.13
2023-03-26T07:33:18.565Z,99295.94
2023-03-26T07:35:32.646Z,99296.69
2023-03-26T07:38:08.353Z,99300.98
2023-03-26T07:40:39.496Z,99304.84
2023-03-26T07:43:21.183Z,99310.26
2023-03-26T07:45:23.578Z,99311.86
2023-03-26T07:47:37.524Z,99309.51
2023-03-26T07:50:07.733Z,99312.38
2023-03-26T07:52:19.207Z,99305.96
2023-03-26T07:54:32.534Z,99315.02
2023-03-26T07:57:02.418Z,99311.20
2023-03-26T07:59:35.020Z,99316.25
2023-03-26T08:02:02.477Z,99315.63
2023-03-26T08:04:28.064Z,99311.29
2023-03-26T08:06:50.843Z,99308.68
2023-03-26T08:09:29.144Z,99310.66
2023-03-26T08:11:53.633Z,99307.45
2023-03-26T08:13:46.376Z,99310.61
2023-03-26T08:15:53.694Z,99307.85
2023-03-26T08:18:13.646Z,99304.65
2023-03-26T08:20:26.275Z,99306.86
2023-03-26T08:22:26.510Z,99304.70
2023-03-26T08:24:36.698Z,99302.52
2023-03-26T08:26:57.636Z,99300.83
2023-03-26T08:29:09.619Z,99302.05
2023-03-26T08:31:03.136Z,99297.16
2023-03-26T08:33:13.812Z,99308.02
2023-03-26T08:35:09.445Z,99305.59
2023-03-26T08:37:02.615Z,99303.05
2023-03-26T08:38:57.606Z,99303.59
2023-03-26T08:41:19.660Z,99301.17
2023-03-26T08:43:31.119Z,99300.47
2023-03-26T08:45:54.275Z,99300.33
2023-03-26T08:48:29.083Z,99303.91
2023-03-26T08:50:51.851Z,99304.21
2023-03-26T08:53:08.057Z,99307.23
2023-03-26T08:55:21.064Z,99308.48
2023-03-26T08:57:47.499Z,99304.68
2023-03-26T09:00:15.644Z,99302.45
2023-03-26T09:02:50.840Z,99305.30
2023-03-26T09:05:22.159Z,99303.65
2023-03-26T09:07:46.344Z,99305.33
2023-03-26T09:10:02.219Z,99299.64
2023-03-26T09:12:28.360Z,99297.62
2023-03-26T09:14:28.157Z,99290.81
2023-03-26T09:16:46.248Z,99294.23
2023-03-26T09:19:14.579Z,99289.20
2023-03-26T09:21:32.307Z,99292.64
2023-03-26T09:23:43.483Z,99291.98
2023-03-26T09:25:53.839Z,99290.07
2023-03-26T09:28:09.724Z,99291.30
2023-03-26T09:31:04.549Z,99295.23
2023-03-26T09:33:18.873Z,99301.20
2023-03-26T09:35:39.601Z,99304.64
2023-03-26T09:37:57.081Z,99304.70
2023-03-26T09:40:17.490Z,99301.73
2023-03-26T09:42:23.369Z,99301.33
2023-03-26T09:44:54.892Z,99296.96
2023-03-26T09:47:25.346Z,99303.11
2023-03-26T09:49:39.064Z,99297.20
2023-03-26T09:51:57.806Z,99296.60
2023-03-26T09:54:21.890Z,99295.09
2023-03-26T09:56:31.651Z,99294.25
2023-03-26T09:58:43.767Z,99289.03
2023-03-26T10:00:48.358Z,99293.52
2023-03-26T10:03:06.640Z,99290.53
2023-03-26T10:05:00.488Z,99287.83
2023-03-26T10:07:01.734Z,99289.70
2023-03-26T10:09:22.807Z,99290.30
2023-03-26T10:11:54.360Z,99287.84
2023-03-26T10:14:01.537Z,99291.34
2023-03-26T10:16:20.327Z,99286.41
2023-03-26T10:18:27.329Z,99288.98
2023-03-26T10:20:43.813Z,99293.30
2023-03-26T10:22:57.916Z,99294.02
2023-03-26T10:25:31.122Z,99292.02
2023-03-26T10:27:37.369Z,99291.53
2023-03-26T10:30:16.170Z,99292.30
2023-03-26T10:32:22.580Z,99298.66
2023-03-26T10:34:37.823Z,99298.52
2023-03-26T10:36:36.543Z,99298.76
2023-03-26T10:39:06.449Z,99307.44
2023-03-26T10:41:17.038Z,99317.54
2023-03-26T10:43:49.762Z,99324.95
2023-03-26T10:46:38.138Z,99325.11
2023-03-26T10:48:36.075Z,99318.55
2023-03-26T10:50:49.809Z,99318.04
2023-03-26T10:53:21.261Z,99315.98
2023-03-26T10:55:24.296Z,99314.45
2023-03-26T10:57:45.852Z,99316.64
2023-03-26T10:59:38.711Z,99317.28
2023-03-26T11:01:46.769Z,99313.66
2023-03-26T11:03:46.093Z,99312.30
2023-03-26T11:05:38.990Z,99313.64
2023-03-26T11:07:43.239Z,99310.11
2023-03-26T11:09:45.452Z,99311.03
2023-03-26T11:12:25.727Z,99310.77
2023-03-26T11:14:45.886Z,99313.48
2023-03-26T11:17:40.900Z,99309.08
2023-03-26T11:19:37.631Z,99307.02
2023-03-26T11:21:36.432Z,99302.95
2023-03-26T11:23:47.908Z,99301.39
2023-03-26T11:26:16.782Z,99295.70
2023-03-26T11:28:33.798Z,99301.52
2023-03-26T11:30:45.279Z,99299.95
2023-03-26T11:32:46.174Z,99299.92
2023-03-26T11:34:59.825Z,99299.27
2023-03-26T11:36:58.938Z,99294.62
2023-03-26T11:38:56.738Z,99293.66
2023-03-26T11:40:57.363Z,99290.55
2023-03-26T11:43:13.538Z,99287.11
2023-03-26T11:45:14.730Z,99284.29
2023-03-26T11:47:15.352Z,99282.19
2023-03-26T11:49:12.545Z,99281.06
2023-03-26T11:51:23.185Z,99279.03
2023-03-26T11:53:19.455Z,99276.77
2023-03-26T11:55:13.198Z,99275.88
2023-03-26T11:57:13.126Z,99274.42
2023-03-26T11:59:15.369Z,99272.09
2023-03-26T12:01:22.857Z,99269.35
2023-03-26T12:03:17.205Z,99270.78
2023-03-26T12:05:18.217Z,99273.86
2023-03-26T12:07:18.063Z,99274.52
2023-03-26T12:09:19.667Z,99275.87
2023-03-26T12:11:14.633Z,99279.77
2023-03-26T12:13:36.585Z,99277.20
2023-03-26T12:15:32.257Z,99283.48
2023-03-26T12:17:32.226Z,99280.85
2023-03-26T12:19:29.143Z,99283.91
2023-03-26T12:21:22.514Z,99281.73
2023-03-26T12:23:45.803Z,99278.45
2023-03-26T12:25:40.331Z,99279.61
2023-03-26T12:27:33.393Z,99278.29
2023-03-26T12:29:29.110Z,99285.95
2023-03-26T12:31:28.651Z,99291.21
2023-03-26T12:33:34.863Z,99296.52
2023-03-26T12:35:31.301Z,99297.89
2023-03-26T12:37:37.255Z,99302.86
2023-03-26T12:40:09.671Z,99308.14
2023-03-26T12:44:43.383Z,99309.42
2023-03-26T12:44:55.339Z,99308.67
2023-03-26T12:47:59.157Z,99303.53
2023-03-26T12:49:06.265Z,99304.62
2023-03-26T12:51:14.802Z,99303.65
2023-03-26T12:57:50.408Z,99300.13
2023-03-26T13:10:47.297Z,99267.04
2023-03-26T13:12:50.793Z,99255.85
2023-03-26T13:15:04.539Z,99254.05
2023-03-26T13:17:39.946Z,99248.98
2023-03-26T13:19:45.096Z,99252.23
2023-03-26T13:22:12.474Z,99253.80
2023-03-26T13:24:31.726Z,99247.83
2023-03-26T13:27:02.094Z,99249.02
2023-03-26T13:29:08.761Z,99252.00
2023-03-26T13:31:10.626Z,99255.39
2023-03-26T13:33:26.362Z,99253.56
2023-03-26T13:35:31.975Z,99253.15
2023-03-26T13:37:32.945Z,99248.45
2023-03-26T13:39:41.128Z,99249.57
2023-03-26T13:41:42.398Z,99246.51
2023-03-26T13:43:48.458Z,99247.27
2023-03-26T13:45:57.715Z,99248.50
2023-03-26T13:47:55.760Z,99247.38
2023-03-26T13:49:54.654Z,99246.35
2023-03-26T13:52:03.199Z,99246.65
2023-03-26T13:54:12.743Z,99244.09
2023-03-26T13:56:10.334Z,99244.38
2023-03-26T13:58:14.763Z,99244.45
2023-03-26T14:00:28.445Z,99240.48
2023-03-26T14:02:35.939Z,99239.42
2023-03-26T14:04:34.465Z,99239.39
2023-03-26T14:06:46.879Z,99241.26
2023-03-26T14:08:46.298Z,99243.89
2023-03-26T14:10:54.537Z,99237.98
2023-03-26T14:13:16.093Z,99244.21
2023-03-26T14:15:20.530Z,99244.21
2023-03-26T14:17:39.195Z,99243.05
2023-03-26T14:19:53.916Z,99244.58
2023-03-26T14:22:12.672Z,99241.91
2023-03-26T14:24:23.562Z,99244.75
2023-03-26T14:26:48.756Z,99246.23
2023-03-26T14:28:56.949Z,99252.14
2023-03-26T14:31:08.247Z,99251.43
2023-03-26T14:33:28.198Z,99252.48
2023-03-26T14:35:28.865Z,99251.16
2023-03-26T14:37:34.685Z,99254.95
2023-03-26T14:39:57.538Z,99253.52
2023-03-26T14:41:53.742Z,99249.71
2023-03-26T14:43:55.719Z,99250.52
2023-03-26T14:46:07.718Z,99250.60
2023-03-26T14:48:36.902Z,99249.70
2023-03-26T14:51:25.674Z,99250.69
2023-03-26T14:53:27.864Z,99255.70
2023-03-26T14:55:33.395Z,99251.31
2023-03-26T14:57:35.646Z,99252.17
2023-03-26T14:59:59.692Z,99247.42
2023-03-26T15:02:27.080Z,99247.92
2023-03-26T15:04:42.280Z,99256.40
2023-03-26T15:06:45.340Z,99257.61
2023-03-26T15:08:48.727Z,99260.44
2023-03-26T15:11:14.149Z,99259.23
2023-03-26T15:13:22.038Z,99260.68
2023-03-26T15:16:10.820Z,99259.34
2023-03-26T15:18:54.836Z,99264.05
2023-03-26T15:21:25.102Z,99262.95
2023-03-26T15:23:39.817Z,99261.55
2023-03-26T15:26:11.383Z,99262.19
2023-03-26T15:28:23.062Z,99260.93
2023-03-26T15:30:21.671Z,99256.00
2023-03-26T15:32:40.638Z,99258.50
2023-03-26T15:34:56.378Z,99257.88
2023-03-26T15:37:10.898Z,99255.59
2023-03-26T15:39:58.628Z,99252.26
2023-03-26T15:42:21.311Z,99254.50
2023-03-26T15:44:23.012Z,99252.39
2023-03-26T15:46:56.808Z,99250.42
2023-03-26T15:49:11.858Z,99246.42
2023-03-26T15:51:07.958Z,99247.52
2023-03-26T15:53:26.915Z,99245.98
2023-03-26T15:55:37.577Z,99243.98
2023-03-26T15:57:36.365Z,99247.05
2023-03-26T15:59:53.098Z,99246.52
2023-03-26T16:02:04.069Z,99247.88
2023-03-26T16:04:09.693Z,99245.73
2023-03-26T16:06:18.913Z,99246.73
2023-03-26T16:08:18.749Z,99245.69
2023-03-26T16:10:28.655Z,99248.52
2023-03-26T16:12:32.145Z,99244.45
2023-03-26T16:14:43.668Z,99247.46
2023-03-26T16:16:53.696Z,99243.42
2023-03-26T16:19:21.828Z,99243.59
2023-03-26T16:21:34.851Z,99241.47
2023-03-26T16:23:30.030Z,99239.95
2023-03-26T16:25:48.536Z,99237.36
2023-03-26T16:27:41.486Z,99238.71
2023-03-26T16:30:00.051Z,99234.82
2023-03-26T16:32:28.801Z,99227.77
2023-03-26T16:34:29.018Z,99223.58
2023-03-26T16:36:35.598Z,99227.81
2023-03-26T16:38:50.319Z,99236.83
2023-03-26T16:41:01.248Z,99238.75
2023-03-26T16:43:14.351Z,99239.41
2023-03-26T16:45:34.442Z,99240.96
2023-03-26T16:47:42.837Z,99239.35
2023-03-26T16:50:08.644Z,99241.48
2023-03-26T16:52:19.848Z,99242.45
2023-03-26T16:54:24.476Z,99244.81
2023-03-26T16:56:33.489Z,99243.17
2023-03-26T16:58:46.823Z,99240.36
2023-03-26T17:01:07.942Z,99239.36
2023-03-26T17:03:29.054Z,99238.73
2023-03-26T17:05:30.914Z,99237.68
2023-03-26T17:07:54.867Z,99238.98
2023-03-26T17:10:15.907Z,99236.95
2023-03-26T17:12:42.901Z,99235.84
2023-03-26T17:14:55.662Z,99237.80
2023-03-26T17:17:05.877Z,99240.47
2023-03-26T17:19:06.607Z,99242.37
2023-03-26T17:21:46.265Z,99241.08
2023-03-26T17:24:15.251Z,99239.58
2023-03-26T17:26:41.410Z,99238.66
2023-03-26T17:28:48.799Z,99236.67
2023-03-26T17:31:26.590Z,99239.41
2023-03-26T17:33:25.385Z,99239.86
2023-03-26T17:35:34.693Z,99238.25
2023-03-26T17:37:43.513Z,99242.12
2023-03-26T17:39:40.490Z,99242.07
2023-03-26T17:41:55.923Z,99246.86
2023-03-26T17:43:52.274Z,99242.92
2023-03-26T17:46:02.781Z,99245.77
2023-03-26T17:48:03.645Z,99245.23
2023-03-26T17:50:07.242Z,99246.11
2023-03-26T17:52:17.313Z,99246.48
2023-03-26T17:54:20.991Z,99245.27
2023-03-26T17:56:26.752Z,99247.13
2023-03-26T17:58:37.813Z,99247.52
2023-03-26T18:01:16.304Z,99248.20
2023-03-26T18:03:31.153Z,99249.48
2023-03-26T18:05:29.477Z,99249.55
2023-03-26T18:07:45.253Z,99250.00
2023-03-26T18:10:13.131Z,99253.48
2023-03-26T18:12:42.463Z,99252.23
2023-03-26T18:14:52.779Z,99257.33
2023-03-26T18:16:49.949Z,99257.15
2023-03-26T18:18:51.153Z,99259.02
2023-03-26T18:20:47.179Z,99258.76
2023-03-26T18:22:41.313Z,99260.45
2023-03-26T18:24:40.558Z,99262.87
2023-03-26T18:26:38.542Z,99261.65
2023-03-26T18:28:41.612Z,99261.31
2023-03-26T18:30:47.307Z,99260.55
2023-03-26T18:33:00.153Z,99258.70
2023-03-26T18:34:57.918Z,99256.18
2023-03-26T18:37:11.413Z,99258.65
2023-03-26T18:39:05.325Z,99256.84
2023-03-26T18:41:00.299Z,99260.48
2023-03-26T18:42:57.684Z,99253.65
2023-03-26T18:44:52.276Z,99254.54
2023-03-26T18:46:45.928Z,99256.17
2023-03-26T18:48:39.518Z,99253.11
2023-03-26T18:50:38.699Z,99253.77
2023-03-26T18:52:32.347Z,99251.73
2023-03-26T18:54:32.242Z,99249.45
2023-03-26T18:56:43.159Z,99252.05
2023-03-26T18:58:39.659Z,99251.23
2023-03-26T19:00:33.739Z,99256.48
2023-03-26T19:02:27.782Z,99252.16
2023-03-26T19:04:26.804Z,99250.65
2023-03-26T19:06:20.983Z,99252.77
2023-03-26T19:08:17.409Z,99252.08
2023-03-26T19:10:18.910Z,99251.91
2023-03-26T19:12:29.885Z,99254.12
2023-03-26T19:14:25.019Z,99251.95
2023-03-26T19:16:25.892Z,99252.57
2023-03-26T19:18:28.794Z,99251.89
2023-03-26T19:20:24.963Z,99249.30
2023-03-26T19:22:21.193Z,99250.51
2023-03-26T19:24:16.592Z,99250.74
2023-03-26T19:26:11.322Z,99252.87
2023-03-26T19:28:06.317Z,99250.27
2023-03-26T19:30:05.074Z,99249.67
2023-03-26T19:32:19.824Z,99248.58
2023-03-26T19:34:34.935Z,99246.83
2023-03-26T19:36:34.593Z,99239.75
2023-03-26T19:38:30.203Z,99235.58
2023-03-26T19:40:30.237Z,99231.90
2023-03-26T19:42:43.618Z,99231.48
2023-03-26T19:44:39.673Z,99230.85
2023-03-26T19:48:56.956Z,99233.69
2023-03-26T19:51:06.649Z,99239.70
2023-03-26T19:51:18.356Z,99235.02
2023-03-26T19:53:16.024Z,99242.99
2023-03-26T19:55:21.939Z,99241.90
2023-03-26T19:57:15.522Z,99239.45
2023-03-26T19:59:09.511Z,99242.70
2023-03-26T20:01:06.605Z,99240.90
2023-03-26T20:03:01.743Z,99240.03
2023-03-26T20:04:54.769Z,99240.61
2023-03-26T20:06:49.970Z,99241.41
2023-03-26T20:08:43.940Z,99242.02
2023-03-26T20:10:36.890Z,99241.68
2023-03-26T20:12:29.731Z,99239.44
2023-03-26T20:14:28.982Z,99240.17
2023-03-26T20:16:27.083Z,99235.49
2023-03-26T20:18:21.586Z,99238.45
2023-03-26T20:20:16.377Z,99236.02
2023-03-26T20:22:16.460Z,99233.06
2023-03-26T20:24:14.637Z,99232.30
2023-03-26T20:26:13.506Z,99231.23
2023-03-26T20:28:09.672Z,99233.83
2023-03-26T20:30:07.338Z,99232.38
2023-03-26T20:32:03.973Z,99232.00
2023-03-26T20:34:02.138Z,99233.79
2023-03-26T20:35:57.866Z,99232.39
2023-03-26T20:37:51.608Z,99235.46
2023-03-26T20:39:45.794Z,99233.23
2023-03-26T20:41:45.018Z,99234.00
2023-03-26T20:43:37.927Z,99231.91
2023-03-26T20:45:30.876Z,99229.63
2023-03-26T20:47:24.826Z,99226.98
2023-03-26T20:49:18.401Z,99227.83
2023-03-26T20:51:15.757Z,99229.77
2023-03-26T20:53:16.492Z,99232.68
2023-03-26T20:55:13.914Z,99230.88
2023-03-26T20:57:06.854Z,99232.75
2023-03-26T20:59:10.628Z,99231.85
2023-03-26T21:01:04.356Z,99233.78
2023-03-26T21:02:57.659Z,99233.80
2023-03-26T21:04:50.665Z,99234.23
2023-03-26T21:06:44.557Z,99236.87
2023-03-26T21:08:38.419Z,99236.64
2023-03-26T21:10:31.766Z,99242.04
2023-03-26T21:12:33.537Z,99241.10
2023-03-26T21:14:40.719Z,99238.70
2023-03-26T21:16:34.378Z,99237.05
2023-03-26T21:18:28.029Z,99235.61
2023-03-26T21:20:22.837Z,99236.45
2023-03-26T21:22:53.471Z,99238.83
2023-03-26T21:25:22.501Z,99235.72
2023-03-26T21:27:52.230Z,99236.03
2023-03-26T21:29:46.971Z,99239.36
2023-03-26T21:31:41.195Z,99238.79
2023-03-26T21:33:35.448Z,99240.20
2023-03-26T21:35:30.007Z,99243.14
2023-03-26T21:37:23.809Z,99239.52
2023-03-26T21:39:17.015Z,99237.83
2023-03-26T21:41:28.085Z,99239.08
2023-03-26T21:43:22.364Z,99240.11
2023-03-26T21:45:16.035Z,99244.33
2023-03-26T21:47:09.951Z,99239.56
2023-03-26T21:49:03.676Z,99238.52
2023-03-26T21:51:02.654Z,99237.31
2023-03-26T21:52:56.859Z,99241.13
2023-03-26T21:54:50.830Z,99238.55
2023-03-26T21:57:13.082Z,99238.30
2023-03-26T21:59:24.527Z,99239.12
2023-03-26T22:01:43.848Z,99242.70
2023-03-26T22:04:17.089Z,99234.29
2023-03-26T22:06:21.602Z,99239.73
2023-03-26T22:08:31.522Z,99239.40
2023-03-26T22:10:24.705Z,99240.08
2023-03-26T22:12:17.859Z,99236.13
2023-03-26T22:14:13.368Z,99232.14
2023-03-26T22:16:08.822Z,99233.32
2023-03-26T22:18:03.752Z,99237.98
2023-03-26T22:19:57.027Z,99241.46
2023-03-26T22:21:51.182Z,99244.04
2023-03-26T22:23:50.189Z,99246.83
2023-03-26T22:25:43.556Z,99247.86
2023-03-26T22:27:44.155Z,99249.45
2023-03-26T22:29:37.842Z,99252.06
2023-03-26T22:31:31.256Z,99254.19
2023-03-26T22:33:24.248Z,99254.77
2023-03-26T22:35:17.274Z,99260.73
2023-03-26T22:37:10.146Z,99262.90
2023-03-26T22:39:03.097Z,99268.59
2023-03-26T22:40:58.013Z,99268.80
2023-03-26T22:42:51.449Z,99268.52
2023-03-26T22:44:44.292Z,99269.67
2023-03-26T22:46:37.961Z,99274.70
2023-03-26T22:48:32.153Z,99275.58
2023-03-26T22:50:26.008Z,99273.17
2023-03-26T22:52:18.901Z,99269.09
2023-03-26T22:54:11.798Z,99273.20
2023-03-26T22:56:05.359Z,99272.91
2023-03-26T22:57:58.419Z,99270.17
2023-03-26T22:59:52.174Z,99275.65
2023-03-26T23:01:45.618Z,99274.82
2023-03-26T23:03:39.512Z,99276.41
2023-03-26T23:05:32.966Z,99274.58
2023-03-26T23:07:25.811Z,99272.92
2023-03-26T23:09:18.661Z,99267.45
2023-03-26T23:11:13.994Z,99269.14
2023-03-26T23:13:06.809Z,99264.63
2023-03-26T23:15:00.892Z,99262.14
2023-03-26T23:16:53.831Z,99260.92
2023-03-26T23:18:47.804Z,99260.60
2023-03-26T23:20:42.806Z,99263.04
2023-03-26T23:22:35.645Z,99264.45
2023-03-26T23:24:30.154Z,99267.44
2023-03-26T23:26:24.208Z,99275.94
2023-03-26T23:28:17.772Z,99281.29
2023-03-26T23:30:11.483Z,99285.67
2023-03-26T23:32:23.559Z,99290.36
2023-03-26T23:34:18.633Z,99291.77
2023-03-26T23:36:13.921Z,99291.02
2023-03-26T23:38:07.008Z,99294.61
2023-03-26T23:40:00.572Z,99298.59
2023-03-26T23:41:53.493Z,99305.93
2023-03-26T23:43:55.943Z,99306.92
2023-03-26T23:45:50.573Z,99314.73
2023-03-26T23:47:43.529Z,99316.88
2023-03-26T23:49:37.473Z,99324.59
2023-03-26T23:51:31.348Z,99324.70
2023-03-26T23:53:28.076Z,99330.09
2023-03-26T23:55:20.923Z,99336.73
2023-03-26T23:57:13.984Z,99336.23
2023-03-26T23:59:07.027Z,99340.97
